createdAt,value
2019-01-27T00:01:20.471Z,0.83
2019-01-27T00:03:52.584Z,0.89
2019-01-27T00:06:25.865Z,0.94
2019-01-27T00:09:05.875Z,0.94
2019-01-27T00:11:39.505Z,0.92
2019-01-27T00:14:18.113Z,0.94
2019-01-27T00:16:50.194Z,0.90
2019-01-27T00:19:30.160Z,0.97
2019-01-27T00:22:10.513Z,0.97
2019-01-27T00:24:44.143Z,0.92
2019-01-27T00:27:16.215Z,0.86
2019-01-27T00:29:48.280Z,0.91
2019-01-27T00:32:20.244Z,0.91
2019-01-27T00:34:52.235Z,0.87
2019-01-27T00:37:24.341Z,0.80
2019-01-27T00:39:56.387Z,0.82
2019-01-27T00:42:28.445Z,0.80
2019-01-27T00:45:00.457Z,0.79
2019-01-27T00:47:32.707Z,0.86
2019-01-27T00:50:05.362Z,0.89
2019-01-27T00:52:37.448Z,0.87
2019-01-27T00:55:12.831Z,0.85
2019-01-27T00:57:45.031Z,0.82
2019-01-27T01:00:19.790Z,0.83
2019-01-27T01:02:51.955Z,0.86
2019-01-27T01:05:24.078Z,0.91
2019-01-27T01:07:56.196Z,0.86
2019-01-27T01:10:28.337Z,0.92
2019-01-27T01:13:00.360Z,0.92
2019-01-27T01:15:32.461Z,0.97
2019-01-27T01:18:04.991Z,0.95
2019-01-27T01:20:36.953Z,0.97
2019-01-27T01:23:09.509Z,0.95
2019-01-27T01:25:41.496Z,0.97
2019-01-27T01:28:13.610Z,1.02
2019-01-27T01:30:45.644Z,1.01
2019-01-27T01:33:17.751Z,1.07
2019-01-27T01:35:52.814Z,1.05
2019-01-27T01:38:24.989Z,1.09
2019-01-27T01:40:56.995Z,1.15
2019-01-27T01:43:29.028Z,1.15
2019-01-27T01:46:01.079Z,1.11
2019-01-27T01:48:33.159Z,1.08
2019-01-27T01:51:05.175Z,1.12
2019-01-27T01:53:37.301Z,1.03
2019-01-27T01:56:09.622Z,1.10
2019-01-27T01:58:41.648Z,1.07
2019-01-27T02:01:13.800Z,1.11
2019-01-27T02:03:46.164Z,1.12
2019-01-27T02:06:20.854Z,1.10
2019-01-27T02:08:52.997Z,1.09
2019-01-27T02:11:25.112Z,1.09
2019-01-27T02:13:57.288Z,1.12
2019-01-27T02:16:29.310Z,1.09
2019-01-27T02:19:01.398Z,1.10
2019-01-27T02:21:34.669Z,1.11
2019-01-27T02:24:07.166Z,1.12
2019-01-27T02:26:39.314Z,1.13
2019-01-27T02:29:12.895Z,1.13
2019-01-27T02:31:44.874Z,1.12
2019-01-27T02:34:16.896Z,1.11
2019-01-27T02:36:48.937Z,1.15
2019-01-27T02:39:21.275Z,1.10
2019-01-27T02:41:54.467Z,1.14
2019-01-27T02:44:26.476Z,1.11
2019-01-27T02:46:58.435Z,1.14
2019-01-27T02:49:30.646Z,1.12
2019-01-27T02:52:04.668Z,1.11
2019-01-27T02:54:39.150Z,1.03
2019-01-27T02:57:11.366Z,1.07
2019-01-27T02:59:43.965Z,1.02
2019-01-27T03:02:16.031Z,1.04
2019-01-27T03:04:48.069Z,1.07
2019-01-27T03:07:39.476Z,1.08
2019-01-27T03:10:13.715Z,1.11
2019-01-27T03:12:45.959Z,1.09
2019-01-27T03:15:18.874Z,1.10
2019-01-27T03:17:52.663Z,1.11
2019-01-27T03:20:24.680Z,1.15
2019-01-27T03:22:56.663Z,1.18
2019-01-27T03:25:28.730Z,1.17
2019-01-27T03:28:00.720Z,1.17
2019-01-27T03:30:32.896Z,1.19
2019-01-27T03:33:04.864Z,1.19
2019-01-27T03:35:38.506Z,1.18
2019-01-27T03:38:10.479Z,1.18
2019-01-27T03:40:42.555Z,1.23
2019-01-27T03:43:14.547Z,1.24
2019-01-27T03:45:46.658Z,1.25
2019-01-27T03:48:18.637Z,1.24
2019-01-27T03:50:50.671Z,1.25
2019-01-27T03:53:22.717Z,1.25
2019-01-27T03:55:54.712Z,1.28
2019-01-27T03:58:28.719Z,1.28
2019-01-27T04:01:00.760Z,1.28
2019-01-27T04:03:32.784Z,1.26
2019-01-27T04:06:04.816Z,1.33
2019-01-27T04:08:36.938Z,1.35
2019-01-27T04:11:09.011Z,1.37
2019-01-27T04:13:42.048Z,1.38
2019-01-27T04:16:14.032Z,1.42
2019-01-27T04:18:46.014Z,1.41
2019-01-27T04:21:17.994Z,1.41
2019-01-27T04:23:50.027Z,1.45
2019-01-27T04:26:22.049Z,1.52
2019-01-27T04:28:54.643Z,1.57
2019-01-27T04:31:27.721Z,1.58
2019-01-27T04:34:00.760Z,1.70
2019-01-27T04:36:32.764Z,1.61
2019-01-27T04:39:09.191Z,1.69
2019-01-27T04:41:41.240Z,1.67
2019-01-27T04:44:13.259Z,1.60
2019-01-27T04:46:45.220Z,1.66
2019-01-27T04:49:17.249Z,1.63
2019-01-27T04:51:50.275Z,1.59
2019-01-27T04:54:22.332Z,1.61
2019-01-27T04:56:54.295Z,1.70
2019-01-27T04:59:26.600Z,1.75
2019-01-27T05:01:58.602Z,1.82
2019-01-27T05:04:38.650Z,1.88
2019-01-27T05:07:10.722Z,1.90
2019-01-27T05:09:42.779Z,1.92
2019-01-27T05:12:14.954Z,1.99
2019-01-27T05:14:46.969Z,1.94
2019-01-27T05:17:18.993Z,1.94
2019-01-27T05:19:50.968Z,1.88
2019-01-27T05:22:23.107Z,1.90
2019-01-27T05:24:55.152Z,1.93
2019-01-27T05:27:27.165Z,1.92
2019-01-27T05:29:59.169Z,1.88
2019-01-27T05:32:31.200Z,1.88
2019-01-27T05:35:03.202Z,1.94
2019-01-27T05:37:35.287Z,1.97
2019-01-27T05:40:08.650Z,1.98
2019-01-27T05:42:40.780Z,2.07
2019-01-27T05:45:14.279Z,2.09
2019-01-27T05:47:46.278Z,2.15
2019-01-27T05:50:18.413Z,2.16
2019-01-27T05:52:51.771Z,2.24
2019-01-27T05:55:27.320Z,2.28
2019-01-27T05:57:59.347Z,2.23
2019-01-27T06:00:34.770Z,2.15
2019-01-27T06:03:06.744Z,2.11
2019-01-27T06:05:38.836Z,2.21
2019-01-27T06:08:12.908Z,2.23
2019-01-27T06:10:44.941Z,2.22
2019-01-27T06:13:17.033Z,2.20
2019-01-27T06:15:49.063Z,2.21
2019-01-27T06:18:21.229Z,2.19
2019-01-27T06:20:53.248Z,2.11
2019-01-27T06:23:25.273Z,2.09
2019-01-27T06:25:57.253Z,2.06
2019-01-27T06:28:29.253Z,2.02
2019-01-27T06:31:01.208Z,2.05
2019-01-27T06:33:40.931Z,2.02
2019-01-27T06:36:12.920Z,2.06
2019-01-27T06:38:44.949Z,2.07
2019-01-27T06:41:17.105Z,2.18
2019-01-27T06:43:49.158Z,2.25
2019-01-27T06:46:21.319Z,2.27
2019-01-27T06:48:53.762Z,2.27
2019-01-27T06:51:25.793Z,2.25
2019-01-27T06:53:57.873Z,2.28
2019-01-27T06:56:32.541Z,2.27
2019-01-27T06:59:12.366Z,2.30
2019-01-27T07:01:52.118Z,2.28
2019-01-27T07:04:36.339Z,2.23
2019-01-27T07:07:17.776Z,2.12
2019-01-27T07:10:04.540Z,2.09
2019-01-27T07:12:47.492Z,2.09
2019-01-27T07:15:41.327Z,2.06
2019-01-27T07:18:47.386Z,1.99
2019-01-27T07:21:33.611Z,1.97
2019-01-27T07:24:39.940Z,1.97
2019-01-27T07:27:48.151Z,1.98
2019-01-27T07:30:39.084Z,1.96
2019-01-27T07:33:28.683Z,1.93
2019-01-27T07:36:18.673Z,1.94
2019-01-27T07:39:18.719Z,1.97
2019-01-27T07:42:06.140Z,2.02
2019-01-27T07:44:56.000Z,2.01
2019-01-27T07:47:46.480Z,1.99
2019-01-27T07:50:36.712Z,1.99
2019-01-27T07:53:33.540Z,1.99
2019-01-27T07:56:23.810Z,2.03
2019-01-27T07:59:04.625Z,2.01
2019-01-27T08:02:11.016Z,2.05
2019-01-27T08:05:02.928Z,2.07
2019-01-27T08:07:54.253Z,2.06
2019-01-27T08:10:37.991Z,2.05
2019-01-27T08:13:41.169Z,2.06
2019-01-27T08:16:32.073Z,2.09
2019-01-27T08:19:32.003Z,2.08
2019-01-27T08:22:14.047Z,2.10
2019-01-27T08:25:07.943Z,2.11
2019-01-27T08:28:06.592Z,2.11
2019-01-27T08:30:56.168Z,2.17
2019-01-27T08:34:05.599Z,2.18
2019-01-27T08:36:56.824Z,2.18
2019-01-27T08:39:50.767Z,2.21
2019-01-27T08:42:44.893Z,2.26
2019-01-27T08:45:50.841Z,2.26
2019-01-27T08:48:22.970Z,2.32
2019-01-27T08:50:55.117Z,2.29
2019-01-27T08:53:27.022Z,2.31
2019-01-27T08:55:59.081Z,2.34
2019-01-27T08:58:31.195Z,2.36
2019-01-27T09:01:17.911Z,2.43
2019-01-27T09:03:59.292Z,2.43
2019-01-27T09:06:56.477Z,2.49
2019-01-27T09:09:50.849Z,2.48
2019-01-27T09:12:41.834Z,2.45
2019-01-27T09:15:51.019Z,2.50
2019-01-27T09:18:42.033Z,2.45
2019-01-27T09:21:36.044Z,2.52
2019-01-27T09:24:25.943Z,2.55
2019-01-27T09:27:11.992Z,2.54
2019-01-27T09:30:05.953Z,2.60
2019-01-27T09:33:08.565Z,2.61
2019-01-27T09:35:52.986Z,2.64
2019-01-27T09:38:45.051Z,2.56
2019-01-27T09:41:39.173Z,2.55
2019-01-27T09:44:39.301Z,2.57
2019-01-27T09:47:27.369Z,2.60
2019-01-27T09:50:30.826Z,2.64
2019-01-27T09:53:24.697Z,2.67
2019-01-27T09:56:16.956Z,2.63
2019-01-27T09:58:55.946Z,2.62
2019-01-27T10:01:53.360Z,2.61
2019-01-27T10:04:36.118Z,2.57
2019-01-27T10:07:25.622Z,2.59
2019-01-27T10:10:22.701Z,2.64
2019-01-27T10:13:21.133Z,2.63
2019-01-27T10:16:01.422Z,2.62
2019-01-27T10:18:55.225Z,2.67
2019-01-27T10:21:45.191Z,2.67
2019-01-27T10:24:41.458Z,2.68
2019-01-27T10:27:44.191Z,2.72
2019-01-27T10:30:40.189Z,2.72
2019-01-27T10:33:40.393Z,2.76
2019-01-27T10:36:40.735Z,2.71
2019-01-27T10:39:32.545Z,2.70
2019-01-27T10:42:22.718Z,2.73
2019-01-27T10:45:03.863Z,2.81
2019-01-27T10:47:55.209Z,2.88
2019-01-27T10:50:41.470Z,2.91
2019-01-27T10:53:50.733Z,2.92
2019-01-27T10:56:28.550Z,2.96
2019-01-27T10:59:25.672Z,3.04
2019-01-27T11:02:20.928Z,3.10
2019-01-27T11:05:19.118Z,3.08
2019-01-27T11:08:07.556Z,3.08
2019-01-27T11:10:57.357Z,3.17
2019-01-27T11:13:47.485Z,3.12
2019-01-27T11:16:43.278Z,3.10
2019-01-27T11:19:27.987Z,3.11
2019-01-27T11:22:15.226Z,3.08
2019-01-27T11:25:01.124Z,3.09
2019-01-27T11:28:08.713Z,3.13
2019-01-27T11:30:48.332Z,3.16
2019-01-27T11:33:45.623Z,3.15
2019-01-27T11:36:30.002Z,3.13
2019-01-27T11:39:40.194Z,3.17
2019-01-27T11:42:28.456Z,3.18
2019-01-27T11:45:07.173Z,3.16
2019-01-27T11:48:04.265Z,3.16
2019-01-27T11:50:46.921Z,3.19
2019-01-27T11:53:19.030Z,3.24
2019-01-27T11:55:51.037Z,3.23
2019-01-27T11:58:23.161Z,3.25
2019-01-27T12:00:58.900Z,3.26
2019-01-27T12:03:30.984Z,3.26
2019-01-27T12:06:05.585Z,3.29
2019-01-27T12:08:39.989Z,3.27
2019-01-27T12:11:12.450Z,3.27
2019-01-27T12:13:44.697Z,3.30
2019-01-27T12:16:17.945Z,3.30
2019-01-27T12:18:50.302Z,3.29
2019-01-27T12:21:22.609Z,3.29
2019-01-27T12:23:55.145Z,3.29
2019-01-27T12:26:27.118Z,3.31
2019-01-27T12:29:00.807Z,3.33
2019-01-27T12:31:32.859Z,3.34
2019-01-27T12:34:07.169Z,3.34
2019-01-27T12:36:39.549Z,3.32
2019-01-27T12:39:11.807Z,3.36
2019-01-27T12:41:44.819Z,3.38
2019-01-27T12:44:17.260Z,3.46
2019-01-27T12:46:49.308Z,3.49
2019-01-27T12:49:21.496Z,3.53
2019-01-27T12:51:54.194Z,3.54
2019-01-27T12:54:26.371Z,3.52
2019-01-27T12:56:58.506Z,3.54
2019-01-27T12:59:31.732Z,3.54
2019-01-27T13:02:05.487Z,3.56
2019-01-27T13:04:37.682Z,3.53
2019-01-27T13:07:10.177Z,3.55
2019-01-27T13:09:42.378Z,3.52
2019-01-27T13:12:14.509Z,3.51
2019-01-27T13:14:46.648Z,3.50
2019-01-27T13:17:19.000Z,3.54
2019-01-27T13:19:53.904Z,3.55
2019-01-27T13:22:25.269Z,3.58
2019-01-27T13:24:58.042Z,3.63
2019-01-27T13:27:40.284Z,3.69
2019-01-27T13:30:19.799Z,3.69
2019-01-27T13:32:52.318Z,3.67
2019-01-27T13:35:25.565Z,3.73
2019-01-27T13:37:57.675Z,3.76
2019-01-27T13:40:29.859Z,3.78
2019-01-27T13:43:07.539Z,3.79
2019-01-27T13:45:39.995Z,3.81
2019-01-27T13:48:12.133Z,3.76
2019-01-27T13:50:44.279Z,3.78
2019-01-27T13:53:16.419Z,3.81
2019-01-27T13:55:48.702Z,3.82
2019-01-27T13:58:20.724Z,3.87
2019-01-27T14:00:52.714Z,3.84
2019-01-27T14:03:28.139Z,3.85
2019-01-27T14:06:00.187Z,3.91
2019-01-27T14:08:32.321Z,3.95
2019-01-27T14:11:07.178Z,3.99
2019-01-27T14:13:41.965Z,4.05
2019-01-27T14:16:14.163Z,4.09
2019-01-27T14:18:46.756Z,4.09
2019-01-27T14:21:19.128Z,4.13
2019-01-27T14:23:51.703Z,4.11
2019-01-27T14:26:24.000Z,4.08
2019-01-27T14:28:56.140Z,4.04
2019-01-27T14:31:28.425Z,4.11
2019-01-27T14:34:00.651Z,4.08
2019-01-27T14:36:32.845Z,4.05
2019-01-27T14:39:08.040Z,4.04
2019-01-27T14:41:40.405Z,4.01
2019-01-27T14:44:12.701Z,3.97
2019-01-27T14:46:45.326Z,3.97
2019-01-27T14:49:18.340Z,3.96
2019-01-27T14:51:51.063Z,3.94
2019-01-27T14:54:23.458Z,3.93
2019-01-27T14:56:55.662Z,3.93
2019-01-27T14:59:27.836Z,3.87
2019-01-27T15:01:59.989Z,3.91
2019-01-27T15:04:56.845Z,3.92
2019-01-27T15:11:45.849Z,3.89
2019-01-27T15:14:18.266Z,3.87
2019-01-27T15:16:50.490Z,3.84
2019-01-27T15:19:22.669Z,3.84
2019-01-27T15:21:54.834Z,3.78
2019-01-27T15:25:17.626Z,3.78
2019-01-27T15:27:57.930Z,3.77
2019-01-27T15:30:31.698Z,3.76
2019-01-27T15:33:05.910Z,3.78
2019-01-27T15:35:41.778Z,3.76
2019-01-27T15:38:15.952Z,3.76
2019-01-27T15:40:53.955Z,3.79
2019-01-27T15:43:26.285Z,3.81
2019-01-27T15:45:58.422Z,3.83
2019-01-27T15:48:30.574Z,3.85
2019-01-27T15:51:02.675Z,3.88
2019-01-27T15:53:35.099Z,3.92
2019-01-27T15:56:07.373Z,3.90
2019-01-27T15:58:39.462Z,3.92
2019-01-27T16:01:11.987Z,3.94
2019-01-27T16:03:44.330Z,3.97
2019-01-27T16:06:16.413Z,3.96
2019-01-27T16:08:48.632Z,3.96
2019-01-27T16:11:21.180Z,3.96
2019-01-27T16:13:53.506Z,3.93
2019-01-27T16:16:25.672Z,3.94
2019-01-27T16:18:58.974Z,3.92
2019-01-27T16:21:31.328Z,3.90
2019-01-27T16:24:06.578Z,3.91
2019-01-27T16:26:38.813Z,3.90
2019-01-27T16:29:10.933Z,3.88
2019-01-27T16:32:01.274Z,3.88
2019-01-27T16:34:39.970Z,3.87
2019-01-27T16:37:26.170Z,3.85
2019-01-27T16:39:58.419Z,3.84
2019-01-27T16:42:33.046Z,3.82
2019-01-27T16:45:06.698Z,3.79
2019-01-27T16:47:39.192Z,3.78
2019-01-27T16:50:13.972Z,3.79
2019-01-27T16:52:48.318Z,3.76
2019-01-27T16:55:20.961Z,3.73
2019-01-27T16:57:53.091Z,3.71
2019-01-27T17:00:27.215Z,3.68
2019-01-27T17:02:59.461Z,3.63
2019-01-27T17:05:40.755Z,3.64
2019-01-27T17:08:13.101Z,3.67
2019-01-27T17:10:45.368Z,3.67
2019-01-27T17:13:17.436Z,3.66
2019-01-27T17:15:49.718Z,3.66
2019-01-27T17:18:21.983Z,3.66
2019-01-27T17:20:54.277Z,3.68
2019-01-27T17:23:26.652Z,3.69
2019-01-27T17:25:58.866Z,3.68
2019-01-27T17:28:30.995Z,3.70
2019-01-27T17:31:03.112Z,3.71
2019-01-27T17:33:35.297Z,3.70
2019-01-27T17:39:14.096Z,3.70
2019-01-27T17:41:46.363Z,3.68
2019-01-27T17:44:18.767Z,3.69
2019-01-27T17:46:51.071Z,3.69
2019-01-27T17:49:26.103Z,3.68
2019-01-27T17:52:01.463Z,3.68
2019-01-27T17:54:35.539Z,3.71
2019-01-27T17:57:20.378Z,3.68
2019-01-27T18:00:18.998Z,3.70
2019-01-27T18:03:10.243Z,3.70
2019-01-27T18:06:01.447Z,3.69
2019-01-27T18:09:32.262Z,3.66
2019-01-27T18:16:09.530Z,3.59
2019-01-27T18:18:42.258Z,3.62
2019-01-27T18:21:14.852Z,3.64
2019-01-27T18:23:48.744Z,3.66
2019-01-27T18:26:21.337Z,3.67
2019-01-27T18:28:55.417Z,3.70
2019-01-27T18:31:30.220Z,3.73
2019-01-27T18:34:18.854Z,3.76
2019-01-27T18:36:58.525Z,3.77
2019-01-27T18:40:00.796Z,3.76
2019-01-27T18:43:29.874Z,3.78
2019-01-27T18:48:10.486Z,3.75
2019-01-27T18:58:15.164Z,3.75
2019-01-27T19:01:32.078Z,3.72
2019-01-27T19:05:09.157Z,3.74
2019-01-27T19:11:49.439Z,3.72
2019-01-27T19:14:37.758Z,3.71
2019-01-27T19:17:42.450Z,3.72
2019-01-27T19:21:01.663Z,3.71
2019-01-27T19:24:03.388Z,3.74
2019-01-27T19:26:58.365Z,3.72
2019-01-27T19:29:58.661Z,3.72
2019-01-27T19:32:51.175Z,3.71
2019-01-27T19:40:47.190Z,3.70
2019-01-27T19:44:32.102Z,3.66
2019-01-27T19:47:38.183Z,3.63
2019-01-27T19:50:38.858Z,3.63
2019-01-27T19:53:28.699Z,3.66
2019-01-27T19:56:26.060Z,3.68
2019-01-27T20:02:40.439Z,3.66
2019-01-27T20:05:28.867Z,3.67
2019-01-27T20:08:16.826Z,3.64
2019-01-27T20:11:01.367Z,3.65
2019-01-27T20:17:40.234Z,3.67
2019-01-27T20:35:19.825Z,3.67
2019-01-27T20:38:08.318Z,3.67
2019-01-27T20:40:56.545Z,3.67
2019-01-27T20:43:53.716Z,3.65
2019-01-27T20:51:08.016Z,3.68
2019-01-27T20:57:46.740Z,3.69
2019-01-27T21:00:40.845Z,3.72
2019-01-27T21:03:32.128Z,3.76
2019-01-27T21:06:23.108Z,3.71
2019-01-27T21:13:29.117Z,3.72
2019-01-27T21:16:36.496Z,3.70
2019-01-27T21:19:45.478Z,3.70
2019-01-27T21:22:18.018Z,3.70
2019-01-27T21:24:50.350Z,3.71
2019-01-27T21:27:22.742Z,3.73
2019-01-27T21:29:56.155Z,3.72
2019-01-27T21:32:37.223Z,3.74
2019-01-27T21:35:10.991Z,3.73
2019-01-27T21:37:43.061Z,3.70
2019-01-27T21:40:17.991Z,3.70
2019-01-27T21:42:49.989Z,3.68
2019-01-27T21:45:26.401Z,3.67
2019-01-27T21:47:58.732Z,3.63
2019-01-27T21:50:36.089Z,3.65
2019-01-27T21:53:10.462Z,3.63
2019-01-27T21:55:42.649Z,3.64
2019-01-27T21:58:14.672Z,3.58
2019-01-27T22:00:46.779Z,3.62
2019-01-27T22:03:18.932Z,3.59
2019-01-27T22:05:51.661Z,3.58
2019-01-27T22:08:23.693Z,3.59
2019-01-27T22:10:55.900Z,3.58
2019-01-27T22:13:29.712Z,3.60
2019-01-27T22:16:02.544Z,3.56
2019-01-27T22:18:34.645Z,3.52
2019-01-27T22:21:06.874Z,3.48
2019-01-27T22:23:38.864Z,3.41
2019-01-27T22:26:11.131Z,3.41
2019-01-27T22:28:43.277Z,3.35
2019-01-27T22:31:15.327Z,3.30
2019-01-27T22:33:47.329Z,3.28
2019-01-27T22:36:19.490Z,3.25
2019-01-27T22:38:53.617Z,3.20
2019-01-27T22:41:25.609Z,3.14
2019-01-27T22:43:59.196Z,3.12
2019-01-27T22:46:31.181Z,3.12
2019-01-27T22:49:03.657Z,3.08
2019-01-27T22:51:35.704Z,3.07
2019-01-27T22:54:07.654Z,3.05
2019-01-27T22:56:39.735Z,3.05
2019-01-27T22:59:13.324Z,3.05
2019-01-27T23:01:45.430Z,3.03
2019-01-27T23:04:17.459Z,3.02
2019-01-27T23:06:49.542Z,3.03
2019-01-27T23:09:22.382Z,3.01
2019-01-27T23:11:54.403Z,3.01
2019-01-27T23:14:26.404Z,3.01
2019-01-27T23:16:58.481Z,2.98
2019-01-27T23:19:30.464Z,2.96
2019-01-27T23:22:02.536Z,2.99
2019-01-27T23:24:34.499Z,2.93
2019-01-27T23:27:08.713Z,2.90
2019-01-27T23:29:40.837Z,2.86
2019-01-27T23:32:12.898Z,2.84
2019-01-27T23:34:44.942Z,2.80
2019-01-27T23:37:16.991Z,2.77
2019-01-27T23:39:48.981Z,2.72
2019-01-27T23:42:21.003Z,2.71
2019-01-27T23:44:53.011Z,2.68
2019-01-27T23:47:24.976Z,2.66
2019-01-27T23:49:58.199Z,2.63
2019-01-27T23:52:30.527Z,2.61
2019-01-27T23:55:02.525Z,2.58
2019-01-27T23:57:34.628Z,2.58
